sensor_id;sensor_type;location;lat;lon;timestamp;P1;durP1;ratioP1;P2;durP2;ratioP2
72517;SDS011;60540;51.178;6.738;2023-04-03T00:00:36;5.32;;;2.92;;
72517;SDS011;60540;51.178;6.738;2023-04-03T00:03:15;6.25;;;3.33;;
72517;SDS011;60540;51.178;6.738;2023-04-03T00:05:48;4.95;;;2.80;;
72517;SDS011;60540;51.178;6.738;2023-04-03T00:08:14;6.00;;;3.42;;
72517;SDS011;60540;51.178;6.738;2023-04-03T00:10:41;5.78;;;3.67;;
72517;SDS011;60540;51.178;6.738;2023-04-03T00:13:07;8.57;;;3.80;;
72517;SDS011;60540;51.178;6.738;2023-04-03T00:15:33;6.25;;;3.17;;
72517;SDS011;60540;51.178;6.738;2023-04-03T00:18:00;6.68;;;3.30;;
72517;SDS011;60540;51.178;6.738;2023-04-03T00:20:26;7.55;;;3.78;;
72517;SDS011;60540;51.178;6.738;2023-04-03T00:22:53;10.70;;;3.58;;
72517;SDS011;60540;51.178;6.738;2023-04-03T00:25:19;6.00;;;3.63;;
72517;SDS011;60540;51.178;6.738;2023-04-03T00:27:45;5.68;;;3.40;;
72517;SDS011;60540;51.178;6.738;2023-04-03T00:30:11;6.80;;;3.53;;
72517;SDS011;60540;51.178;6.738;2023-04-03T00:32:39;5.55;;;3.22;;
72517;SDS011;60540;51.178;6.738;2023-04-03T00:35:05;6.60;;;3.47;;
72517;SDS011;60540;51.178;6.738;2023-04-03T00:37:31;9.40;;;4.07;;
72517;SDS011;60540;51.178;6.738;2023-04-03T00:39:57;7.47;;;3.30;;
72517;SDS011;60540;51.178;6.738;2023-04-03T00:42:23;4.70;;;3.05;;
72517;SDS011;60540;51.178;6.738;2023-04-03T00:47:17;6.85;;;3.50;;
72517;SDS011;60540;51.178;6.738;2023-04-03T00:49:43;6.95;;;3.85;;
72517;SDS011;60540;51.178;6.738;2023-04-03T00:52:12;6.47;;;3.50;;
72517;SDS011;60540;51.178;6.738;2023-04-03T00:54:43;5.72;;;3.85;;
72517;SDS011;60540;51.178;6.738;2023-04-03T00:57:12;8.43;;;3.60;;
72517;SDS011;60540;51.178;6.738;2023-04-03T00:59:40;5.20;;;3.25;;
72517;SDS011;60540;51.178;6.738;2023-04-03T01:02:09;5.68;;;3.40;;
72517;SDS011;60540;51.178;6.738;2023-04-03T01:04:37;6.45;;;4.07;;
72517;SDS011;60540;51.178;6.738;2023-04-03T01:07:29;6.90;;;3.58;;
72517;SDS011;60540;51.178;6.738;2023-04-03T01:09:58;6.22;;;3.60;;
72517;SDS011;60540;51.178;6.738;2023-04-03T01:12:30;6.63;;;3.38;;
72517;SDS011;60540;51.178;6.738;2023-04-03T01:14:59;4.93;;;3.33;;
72517;SDS011;60540;51.178;6.738;2023-04-03T01:17:39;6.53;;;3.15;;
72517;SDS011;60540;51.178;6.738;2023-04-03T01:25:51;6.28;;;3.55;;
72517;SDS011;60540;51.178;6.738;2023-04-03T01:28:24;6.65;;;3.38;;
72517;SDS011;60540;51.178;6.738;2023-04-03T01:30:53;7.20;;;3.17;;
72517;SDS011;60540;51.178;6.738;2023-04-03T01:33:30;4.68;;;2.95;;
72517;SDS011;60540;51.178;6.738;2023-04-03T01:35:57;4.75;;;3.10;;
72517;SDS011;60540;51.178;6.738;2023-04-03T01:38:23;4.88;;;2.95;;
72517;SDS011;60540;51.178;6.738;2023-04-03T01:40:49;5.50;;;2.97;;
72517;SDS011;60540;51.178;6.738;2023-04-03T01:43:14;4.20;;;2.65;;
72517;SDS011;60540;51.178;6.738;2023-04-03T01:45:40;5.10;;;2.72;;
72517;SDS011;60540;51.178;6.738;2023-04-03T01:48:06;6.78;;;3.22;;
72517;SDS011;60540;51.178;6.738;2023-04-03T01:50:32;5.07;;;2.90;;
72517;SDS011;60540;51.178;6.738;2023-04-03T01:52:58;4.97;;;2.78;;
72517;SDS011;60540;51.178;6.738;2023-04-03T01:55:23;4.90;;;2.67;;
72517;SDS011;60540;51.178;6.738;2023-04-03T01:57:49;5.22;;;2.63;;
72517;SDS011;60540;51.178;6.738;2023-04-03T02:00:15;5.03;;;2.88;;
72517;SDS011;60540;51.178;6.738;2023-04-03T02:02:41;5.18;;;2.70;;
72517;SDS011;60540;51.178;6.738;2023-04-03T02:05:07;4.50;;;2.42;;
72517;SDS011;60540;51.178;6.738;2023-04-03T02:07:33;6.57;;;2.70;;
72517;SDS011;60540;51.178;6.738;2023-04-03T02:09:59;5.82;;;2.50;;
72517;SDS011;60540;51.178;6.738;2023-04-03T02:12:25;4.68;;;2.40;;
72517;SDS011;60540;51.178;6.738;2023-04-03T02:14:51;4.35;;;2.50;;
72517;SDS011;60540;51.178;6.738;2023-04-03T02:17:16;3.95;;;2.17;;
72517;SDS011;60540;51.178;6.738;2023-04-03T02:19:43;4.70;;;2.20;;
72517;SDS011;60540;51.178;6.738;2023-04-03T02:22:09;4.95;;;2.05;;
72517;SDS011;60540;51.178;6.738;2023-04-03T02:24:35;5.45;;;2.40;;
72517;SDS011;60540;51.178;6.738;2023-04-03T02:27:00;3.25;;;1.88;;
72517;SDS011;60540;51.178;6.738;2023-04-03T02:29:26;6.13;;;2.50;;
72517;SDS011;60540;51.178;6.738;2023-04-03T02:31:52;3.90;;;1.80;;
72517;SDS011;60540;51.178;6.738;2023-04-03T02:34:18;4.60;;;1.98;;
72517;SDS011;60540;51.178;6.738;2023-04-03T02:36:43;5.32;;;2.35;;
72517;SDS011;60540;51.178;6.738;2023-04-03T02:39:09;6.35;;;2.28;;
72517;SDS011;60540;51.178;6.738;2023-04-03T02:41:35;4.43;;;2.22;;
72517;SDS011;60540;51.178;6.738;2023-04-03T02:44:01;6.57;;;2.47;;
72517;SDS011;60540;51.178;6.738;2023-04-03T02:46:28;8.23;;;2.72;;
72517;SDS011;60540;51.178;6.738;2023-04-03T02:48:54;4.75;;;2.30;;
72517;SDS011;60540;51.178;6.738;2023-04-03T02:51:19;4.57;;;2.50;;
72517;SDS011;60540;51.178;6.738;2023-04-03T02:53:45;6.15;;;2.50;;
72517;SDS011;60540;51.178;6.738;2023-04-03T02:56:11;4.70;;;2.55;;
72517;SDS011;60540;51.178;6.738;2023-04-03T02:58:37;6.55;;;2.50;;
72517;SDS011;60540;51.178;6.738;2023-04-03T03:01:02;6.07;;;2.65;;
72517;SDS011;60540;51.178;6.738;2023-04-03T03:03:28;4.63;;;2.58;;
72517;SDS011;60540;51.178;6.738;2023-04-03T03:06:04;6.45;;;3.33;;
72517;SDS011;60540;51.178;6.738;2023-04-03T03:08:31;4.00;;;2.75;;
72517;SDS011;60540;51.178;6.738;2023-04-03T03:10:56;5.35;;;2.83;;
72517;SDS011;60540;51.178;6.738;2023-04-03T03:13:22;5.22;;;2.63;;
72517;SDS011;60540;51.178;6.738;2023-04-03T03:15:48;6.68;;;2.65;;
72517;SDS011;60540;51.178;6.738;2023-04-03T03:18:14;3.70;;;2.30;;
72517;SDS011;60540;51.178;6.738;2023-04-03T03:20:40;5.15;;;2.60;;
72517;SDS011;60540;51.178;6.738;2023-04-03T03:23:05;6.65;;;2.45;;
72517;SDS011;60540;51.178;6.738;2023-04-03T03:25:31;6.43;;;2.78;;
72517;SDS011;60540;51.178;6.738;2023-04-03T03:27:57;5.10;;;2.50;;
72517;SDS011;60540;51.178;6.738;2023-04-03T03:30:22;5.78;;;2.72;;
72517;SDS011;60540;51.178;6.738;2023-04-03T03:32:48;8.52;;;3.40;;
72517;SDS011;60540;51.178;6.738;2023-04-03T03:35:14;4.90;;;2.80;;
72517;SDS011;60540;51.178;6.738;2023-04-03T03:37:40;8.23;;;2.92;;
72517;SDS011;60540;51.178;6.738;2023-04-03T03:40:06;6.47;;;2.78;;
72517;SDS011;60540;51.178;6.738;2023-04-03T03:42:32;4.80;;;2.38;;
72517;SDS011;60540;51.178;6.738;2023-04-03T03:44:57;5.05;;;2.70;;
72517;SDS011;60540;51.178;6.738;2023-04-03T03:47:23;5.47;;;2.60;;
72517;SDS011;60540;51.178;6.738;2023-04-03T03:49:49;5.30;;;2.70;;
72517;SDS011;60540;51.178;6.738;2023-04-03T03:52:15;5.03;;;2.50;;
72517;SDS011;60540;51.178;6.738;2023-04-03T03:54:41;4.80;;;2.53;;
72517;SDS011;60540;51.178;6.738;2023-04-03T03:57:07;4.85;;;2.60;;
72517;SDS011;60540;51.178;6.738;2023-04-03T03:59:32;4.97;;;2.30;;
72517;SDS011;60540;51.178;6.738;2023-04-03T04:01:58;4.85;;;2.72;;
72517;SDS011;60540;51.178;6.738;2023-04-03T04:04:24;3.15;;;2.15;;
72517;SDS011;60540;51.178;6.738;2023-04-03T04:06:49;5.50;;;2.20;;
72517;SDS011;60540;51.178;6.738;2023-04-03T04:09:15;4.15;;;2.20;;
72517;SDS011;60540;51.178;6.738;2023-04-03T04:11:41;4.10;;;2.15;;
72517;SDS011;60540;51.178;6.738;2023-04-03T04:14:07;5.65;;;2.72;;
72517;SDS011;60540;51.178;6.738;2023-04-03T04:16:33;5.90;;;2.50;;
72517;SDS011;60540;51.178;6.738;2023-04-03T04:18:58;3.63;;;2.03;;
72517;SDS011;60540;51.178;6.738;2023-04-03T04:21:24;3.95;;;2.00;;
72517;SDS011;60540;51.178;6.738;2023-04-03T04:23:51;5.18;;;2.28;;
72517;SDS011;60540;51.178;6.738;2023-04-03T04:26:16;6.00;;;2.00;;
72517;SDS011;60540;51.178;6.738;2023-04-03T04:28:42;5.20;;;2.10;;
72517;SDS011;60540;51.178;6.738;2023-04-03T04:31:08;5.25;;;2.40;;
72517;SDS011;60540;51.178;6.738;2023-04-03T04:33:34;5.05;;;2.17;;
72517;SDS011;60540;51.178;6.738;2023-04-03T04:36:00;4.72;;;2.47;;
72517;SDS011;60540;51.178;6.738;2023-04-03T04:38:25;4.88;;;2.45;;
72517;SDS011;60540;51.178;6.738;2023-04-03T04:40:51;5.32;;;2.67;;
72517;SDS011;60540;51.178;6.738;2023-04-03T04:43:17;4.78;;;2.53;;
72517;SDS011;60540;51.178;6.738;2023-04-03T04:45:43;5.50;;;2.20;;
72517;SDS011;60540;51.178;6.738;2023-04-03T04:48:09;7.03;;;2.08;;
72517;SDS011;60540;51.178;6.738;2023-04-03T04:50:34;5.63;;;2.70;;
72517;SDS011;60540;51.178;6.738;2023-04-03T04:53:00;7.43;;;2.20;;
72517;SDS011;60540;51.178;6.738;2023-04-03T04:55:26;3.95;;;1.65;;
72517;SDS011;60540;51.178;6.738;2023-04-03T04:57:52;4.55;;;2.22;;
72517;SDS011;60540;51.178;6.738;2023-04-03T05:00:18;3.75;;;2.25;;
72517;SDS011;60540;51.178;6.738;2023-04-03T05:02:43;4.88;;;2.30;;
72517;SDS011;60540;51.178;6.738;2023-04-03T05:05:09;4.28;;;1.85;;
72517;SDS011;60540;51.178;6.738;2023-04-03T05:07:35;3.90;;;2.00;;
72517;SDS011;60540;51.178;6.738;2023-04-03T05:10:01;3.67;;;1.95;;
72517;SDS011;60540;51.178;6.738;2023-04-03T05:12:28;4.97;;;2.20;;
72517;SDS011;60540;51.178;6.738;2023-04-03T05:14:54;4.00;;;2.05;;
72517;SDS011;60540;51.178;6.738;2023-04-03T05:17:19;5.90;;;2.22;;
72517;SDS011;60540;51.178;6.738;2023-04-03T05:19:45;4.53;;;2.15;;
72517;SDS011;60540;51.178;6.738;2023-04-03T05:22:11;5.80;;;2.88;;
72517;SDS011;60540;51.178;6.738;2023-04-03T05:24:37;4.78;;;1.95;;
72517;SDS011;60540;51.178;6.738;2023-04-03T05:27:02;4.10;;;2.30;;
72517;SDS011;60540;51.178;6.738;2023-04-03T05:29:28;4.55;;;1.90;;
72517;SDS011;60540;51.178;6.738;2023-04-03T05:31:54;4.95;;;1.85;;
72517;SDS011;60540;51.178;6.738;2023-04-03T05:34:20;4.65;;;2.35;;
72517;SDS011;60540;51.178;6.738;2023-04-03T05:36:46;6.72;;;2.67;;
72517;SDS011;60540;51.178;6.738;2023-04-03T05:39:12;4.63;;;1.98;;
72517;SDS011;60540;51.178;6.738;2023-04-03T05:41:37;5.60;;;2.05;;
72517;SDS011;60540;51.178;6.738;2023-04-03T05:44:03;5.65;;;2.03;;
72517;SDS011;60540;51.178;6.738;2023-04-03T05:46:29;6.57;;;2.20;;
72517;SDS011;60540;51.178;6.738;2023-04-03T05:48:55;5.60;;;2.20;;
72517;SDS011;60540;51.178;6.738;2023-04-03T05:51:22;3.95;;;1.80;;
72517;SDS011;60540;51.178;6.738;2023-04-03T05:54:04;4.97;;;1.55;;
72517;SDS011;60540;51.178;6.738;2023-04-03T05:56:33;3.72;;;1.95;;
72517;SDS011;60540;51.178;6.738;2023-04-03T05:58:59;7.47;;;2.35;;
72517;SDS011;60540;51.178;6.738;2023-04-03T06:01:25;3.50;;;1.90;;
72517;SDS011;60540;51.178;6.738;2023-04-03T06:03:50;3.83;;;1.67;;
72517;SDS011;60540;51.178;6.738;2023-04-03T06:06:16;4.05;;;1.90;;
72517;SDS011;60540;51.178;6.738;2023-04-03T06:08:42;4.78;;;1.83;;
72517;SDS011;60540;51.178;6.738;2023-04-03T06:11:08;3.85;;;2.15;;
72517;SDS011;60540;51.178;6.738;2023-04-03T06:13:34;4.45;;;1.80;;
72517;SDS011;60540;51.178;6.738;2023-04-03T06:16:00;5.47;;;1.95;;
72517;SDS011;60540;51.178;6.738;2023-04-03T06:18:26;4.13;;;2.08;;
72517;SDS011;60540;51.178;6.738;2023-04-03T06:20:52;4.10;;;1.77;;
72517;SDS011;60540;51.178;6.738;2023-04-03T06:23:18;6.18;;;1.92;;
72517;SDS011;60540;51.178;6.738;2023-04-03T06:25:43;5.18;;;2.13;;
72517;SDS011;60540;51.178;6.738;2023-04-03T06:28:09;5.28;;;1.70;;
72517;SDS011;60540;51.178;6.738;2023-04-03T06:30:36;5.55;;;1.85;;
72517;SDS011;60540;51.178;6.738;2023-04-03T06:33:02;6.13;;;2.15;;
72517;SDS011;60540;51.178;6.738;2023-04-03T06:35:28;4.65;;;2.15;;
72517;SDS011;60540;51.178;6.738;2023-04-03T06:37:56;4.82;;;1.77;;
72517;SDS011;60540;51.178;6.738;2023-04-03T06:40:23;7.13;;;1.83;;
72517;SDS011;60540;51.178;6.738;2023-04-03T06:42:50;5.47;;;2.15;;
72517;SDS011;60540;51.178;6.738;2023-04-03T06:45:16;5.80;;;1.90;;
72517;SDS011;60540;51.178;6.738;2023-04-03T06:47:42;3.80;;;1.85;;
72517;SDS011;60540;51.178;6.738;2023-04-03T06:50:09;4.25;;;1.98;;
72517;SDS011;60540;51.178;6.738;2023-04-03T06:52:37;4.00;;;1.67;;
72517;SDS011;60540;51.178;6.738;2023-04-03T06:55:03;4.47;;;2.20;;
72517;SDS011;60540;51.178;6.738;2023-04-03T06:57:29;5.55;;;2.00;;
72517;SDS011;60540;51.178;6.738;2023-04-03T06:59:55;5.78;;;2.00;;
72517;SDS011;60540;51.178;6.738;2023-04-03T07:02:21;4.20;;;2.17;;
72517;SDS011;60540;51.178;6.738;2023-04-03T07:04:46;3.08;;;1.40;;
72517;SDS011;60540;51.178;6.738;2023-04-03T07:07:12;5.93;;;1.77;;
72517;SDS011;60540;51.178;6.738;2023-04-03T07:09:38;4.78;;;1.88;;
72517;SDS011;60540;51.178;6.738;2023-04-03T07:12:04;3.72;;;1.35;;
72517;SDS011;60540;51.178;6.738;2023-04-03T07:14:30;6.03;;;1.80;;
72517;SDS011;60540;51.178;6.738;2023-04-03T07:16:56;3.85;;;1.80;;
72517;SDS011;60540;51.178;6.738;2023-04-03T07:19:22;5.22;;;1.90;;
72517;SDS011;60540;51.178;6.738;2023-04-03T07:21:49;4.38;;;1.58;;
72517;SDS011;60540;51.178;6.738;2023-04-03T07:24:15;6.40;;;1.70;;
72517;SDS011;60540;51.178;6.738;2023-04-03T07:26:41;4.15;;;1.50;;
72517;SDS011;60540;51.178;6.738;2023-04-03T07:29:07;5.60;;;1.73;;
72517;SDS011;60540;51.178;6.738;2023-04-03T07:31:42;6.07;;;2.00;;
72517;SDS011;60540;51.178;6.738;2023-04-03T07:34:17;3.88;;;1.73;;
72517;SDS011;60540;51.178;6.738;2023-04-03T07:36:45;5.15;;;1.40;;
72517;SDS011;60540;51.178;6.738;2023-04-03T07:39:37;6.55;;;2.20;;
72517;SDS011;60540;51.178;6.738;2023-04-03T07:42:03;2.83;;;1.58;;
72517;SDS011;60540;51.178;6.738;2023-04-03T07:44:29;3.88;;;1.42;;
72517;SDS011;60540;51.178;6.738;2023-04-03T07:46:58;5.68;;;1.65;;
72517;SDS011;60540;51.178;6.738;2023-04-03T07:49:25;2.88;;;1.40;;
72517;SDS011;60540;51.178;6.738;2023-04-03T07:51:51;4.45;;;1.42;;
72517;SDS011;60540;51.178;6.738;2023-04-03T07:54:18;2.85;;;1.60;;
72517;SDS011;60540;51.178;6.738;2023-04-03T07:56:44;3.33;;;1.30;;
72517;SDS011;60540;51.178;6.738;2023-04-03T07:59:10;2.90;;;1.20;;
72517;SDS011;60540;51.178;6.738;2023-04-03T08:01:37;4.55;;;1.55;;
72517;SDS011;60540;51.178;6.738;2023-04-03T08:04:24;3.72;;;1.58;;
72517;SDS011;60540;51.178;6.738;2023-04-03T08:07:08;3.55;;;1.40;;
72517;SDS011;60540;51.178;6.738;2023-04-03T08:09:33;3.75;;;1.50;;
72517;SDS011;60540;51.178;6.738;2023-04-03T08:12:00;4.03;;;1.50;;
72517;SDS011;60540;51.178;6.738;2023-04-03T08:14:26;5.63;;;1.63;;
72517;SDS011;60540;51.178;6.738;2023-04-03T08:16:53;2.42;;;1.15;;
72517;SDS011;60540;51.178;6.738;2023-04-03T08:19:19;4.00;;;1.40;;
72517;SDS011;60540;51.178;6.738;2023-04-03T08:21:45;5.70;;;1.63;;
72517;SDS011;60540;51.178;6.738;2023-04-03T08:24:12;3.67;;;1.48;;
72517;SDS011;60540;51.178;6.738;2023-04-03T08:26:38;4.25;;;1.98;;
72517;SDS011;60540;51.178;6.738;2023-04-03T08:29:03;2.80;;;1.10;;
72517;SDS011;60540;51.178;6.738;2023-04-03T08:31:29;3.83;;;1.60;;
72517;SDS011;60540;51.178;6.738;2023-04-03T08:33:56;2.30;;;1.10;;
72517;SDS011;60540;51.178;6.738;2023-04-03T08:36:27;2.20;;;1.02;;
72517;SDS011;60540;51.178;6.738;2023-04-03T08:38:53;4.88;;;1.33;;
72517;SDS011;60540;51.178;6.738;2023-04-03T08:41:25;2.88;;;1.00;;
72517;SDS011;60540;51.178;6.738;2023-04-03T08:49:42;5.78;;;1.20;;
72517;SDS011;60540;51.178;6.738;2023-04-03T08:52:17;2.10;;;0.90;;
72517;SDS011;60540;51.178;6.738;2023-04-03T08:54:59;2.17;;;0.90;;
72517;SDS011;60540;51.178;6.738;2023-04-03T08:57:30;3.45;;;1.17;;
72517;SDS011;60540;51.178;6.738;2023-04-03T08:59:58;2.95;;;0.80;;
72517;SDS011;60540;51.178;6.738;2023-04-03T09:02:43;3.10;;;1.00;;
72517;SDS011;60540;51.178;6.738;2023-04-03T09:05:33;2.90;;;1.10;;
72517;SDS011;60540;51.178;6.738;2023-04-03T09:10:43;4.32;;;1.50;;
72517;SDS011;60540;51.178;6.738;2023-04-03T09:16:20;2.13;;;1.08;;
72517;SDS011;60540;51.178;6.738;2023-04-03T09:18:53;4.13;;;1.00;;
72517;SDS011;60540;51.178;6.738;2023-04-03T09:21:28;2.85;;;1.00;;
72517;SDS011;60540;51.178;6.738;2023-04-03T09:23:58;2.13;;;1.10;;
72517;SDS011;60540;51.178;6.738;2023-04-03T09:26:29;1.75;;;0.90;;
72517;SDS011;60540;51.178;6.738;2023-04-03T09:28:58;2.58;;;1.02;;
72517;SDS011;60540;51.178;6.738;2023-04-03T09:31:26;3.45;;;1.10;;
72517;SDS011;60540;51.178;6.738;2023-04-03T09:33:56;1.67;;;0.93;;
72517;SDS011;60540;51.178;6.738;2023-04-03T09:39:04;3.35;;;1.00;;
72517;SDS011;60540;51.178;6.738;2023-04-03T09:41:31;3.83;;;1.25;;
72517;SDS011;60540;51.178;6.738;2023-04-03T09:43:58;2.63;;;1.25;;
72517;SDS011;60540;51.178;6.738;2023-04-03T09:46:33;2.40;;;1.10;;
72517;SDS011;60540;51.178;6.738;2023-04-03T09:49:01;5.63;;;1.10;;
72517;SDS011;60540;51.178;6.738;2023-04-03T09:51:28;1.73;;;0.80;;
72517;SDS011;60540;51.178;6.738;2023-04-03T09:53:55;2.30;;;1.38;;
72517;SDS011;60540;51.178;6.738;2023-04-03T09:56:25;2.42;;;1.10;;
72517;SDS011;60540;51.178;6.738;2023-04-03T10:01:28;2.90;;;1.02;;
72517;SDS011;60540;51.178;6.738;2023-04-03T10:06:31;2.78;;;1.20;;
72517;SDS011;60540;51.178;6.738;2023-04-03T10:09:02;4.88;;;1.00;;
72517;SDS011;60540;51.178;6.738;2023-04-03T10:11:30;3.53;;;1.25;;
72517;SDS011;60540;51.178;6.738;2023-04-03T10:13:57;2.28;;;1.10;;
72517;SDS011;60540;51.178;6.738;2023-04-03T10:16:38;2.25;;;0.95;;
72517;SDS011;60540;51.178;6.738;2023-04-03T10:22:08;3.50;;;1.23;;
72517;SDS011;60540;51.178;6.738;2023-04-03T10:27:33;3.63;;;1.23;;
72517;SDS011;60540;51.178;6.738;2023-04-03T10:33:04;2.88;;;1.17;;
72517;SDS011;60540;51.178;6.738;2023-04-03T10:40:57;2.35;;;1.08;;
72517;SDS011;60540;51.178;6.738;2023-04-03T10:46:19;2.55;;;1.00;;
72517;SDS011;60540;51.178;6.738;2023-04-03T10:57:02;1.80;;;0.80;;
72517;SDS011;60540;51.178;6.738;2023-04-03T10:59:40;2.60;;;1.05;;
72517;SDS011;60540;51.178;6.738;2023-04-03T11:02:14;3.75;;;1.08;;
72517;SDS011;60540;51.178;6.738;2023-04-03T11:04:51;2.08;;;1.20;;
72517;SDS011;60540;51.178;6.738;2023-04-03T11:07:28;1.77;;;0.73;;
72517;SDS011;60540;51.178;6.738;2023-04-03T11:09:59;3.83;;;1.00;;
72517;SDS011;60540;51.178;6.738;2023-04-03T11:12:36;3.85;;;0.70;;
72517;SDS011;60540;51.178;6.738;2023-04-03T11:15:11;2.22;;;0.65;;
72517;SDS011;60540;51.178;6.738;2023-04-03T11:17:41;1.65;;;0.65;;
72517;SDS011;60540;51.178;6.738;2023-04-03T11:20:16;2.30;;;0.80;;
72517;SDS011;60540;51.178;6.738;2023-04-03T11:22:51;2.63;;;1.00;;
72517;SDS011;60540;51.178;6.738;2023-04-03T11:25:23;2.70;;;1.05;;
72517;SDS011;60540;51.178;6.738;2023-04-03T11:28:00;2.08;;;0.90;;
72517;SDS011;60540;51.178;6.738;2023-04-03T11:36:26;3.88;;;1.00;;
72517;SDS011;60540;51.178;6.738;2023-04-03T11:39:00;2.58;;;0.82;;
72517;SDS011;60540;51.178;6.738;2023-04-03T11:41:28;1.48;;;0.95;;
72517;SDS011;60540;51.178;6.738;2023-04-03T11:44:03;2.33;;;0.90;;
72517;SDS011;60540;51.178;6.738;2023-04-03T11:46:50;2.90;;;0.90;;
72517;SDS011;60540;51.178;6.738;2023-04-03T12:13:36;2.58;;;0.82;;
72517;SDS011;60540;51.178;6.738;2023-04-03T12:16:07;2.90;;;0.90;;
72517;SDS011;60540;51.178;6.738;2023-04-03T12:21:20;1.63;;;0.68;;
72517;SDS011;60540;51.178;6.738;2023-04-03T12:29:23;2.00;;;0.80;;
72517;SDS011;60540;51.178;6.738;2023-04-03T12:45:24;2.33;;;0.80;;
72517;SDS011;60540;51.178;6.738;2023-04-03T12:47:52;2.28;;;0.95;;
72517;SDS011;60540;51.178;6.738;2023-04-03T12:50:22;1.88;;;0.88;;
72517;SDS011;60540;51.178;6.738;2023-04-03T12:52:52;1.85;;;0.75;;
72517;SDS011;60540;51.178;6.738;2023-04-03T12:55:21;1.92;;;0.70;;
72517;SDS011;60540;51.178;6.738;2023-04-03T12:57:47;2.30;;;0.90;;
72517;SDS011;60540;51.178;6.738;2023-04-03T13:02:59;2.45;;;0.70;;
72517;SDS011;60540;51.178;6.738;2023-04-03T13:05:26;2.08;;;0.80;;
72517;SDS011;60540;51.178;6.738;2023-04-03T13:07:57;1.83;;;0.90;;
72517;SDS011;60540;51.178;6.738;2023-04-03T13:10:24;2.00;;;0.80;;
72517;SDS011;60540;51.178;6.738;2023-04-03T13:12:52;2.53;;;0.98;;
72517;SDS011;60540;51.178;6.738;2023-04-03T13:15:19;2.75;;;0.80;;
72517;SDS011;60540;51.178;6.738;2023-04-03T13:17:46;2.55;;;0.90;;
72517;SDS011;60540;51.178;6.738;2023-04-03T13:20:33;2.60;;;0.90;;
72517;SDS011;60540;51.178;6.738;2023-04-03T13:25:37;1.92;;;0.90;;
72517;SDS011;60540;51.178;6.738;2023-04-03T13:28:07;1.27;;;0.77;;
72517;SDS011;60540;51.178;6.738;2023-04-03T13:30:36;2.20;;;0.77;;
72517;SDS011;60540;51.178;6.738;2023-04-03T13:33:03;3.97;;;1.00;;
72517;SDS011;60540;51.178;6.738;2023-04-03T13:37:58;1.98;;;0.77;;
72517;SDS011;60540;51.178;6.738;2023-04-03T13:40:32;1.73;;;0.90;;
72517;SDS011;60540;51.178;6.738;2023-04-03T13:43:16;2.10;;;0.95;;
72517;SDS011;60540;51.178;6.738;2023-04-03T13:48:20;3.78;;;1.05;;
72517;SDS011;60540;51.178;6.738;2023-04-03T13:53:24;2.42;;;0.90;;
72517;SDS011;60540;51.178;6.738;2023-04-03T13:58:28;2.03;;;1.00;;
72517;SDS011;60540;51.178;6.738;2023-04-03T14:00:59;1.88;;;0.80;;
72517;SDS011;60540;51.178;6.738;2023-04-03T14:03:44;2.80;;;1.00;;
72517;SDS011;60540;51.178;6.738;2023-04-03T14:06:19;2.45;;;0.85;;
72517;SDS011;60540;51.178;6.738;2023-04-03T14:11:19;2.33;;;0.90;;
72517;SDS011;60540;51.178;6.738;2023-04-03T14:13:49;2.85;;;0.98;;
72517;SDS011;60540;51.178;6.738;2023-04-03T14:16:19;2.22;;;0.80;;
72517;SDS011;60540;51.178;6.738;2023-04-03T14:18:47;2.28;;;0.93;;
72517;SDS011;60540;51.178;6.738;2023-04-03T14:21:13;3.60;;;1.30;;
72517;SDS011;60540;51.178;6.738;2023-04-03T14:23:40;3.33;;;1.00;;
72517;SDS011;60540;51.178;6.738;2023-04-03T14:26:16;2.97;;;1.10;;
72517;SDS011;60540;51.178;6.738;2023-04-03T14:28:44;3.17;;;0.95;;
72517;SDS011;60540;51.178;6.738;2023-04-03T14:31:11;2.47;;;1.00;;
72517;SDS011;60540;51.178;6.738;2023-04-03T14:33:38;2.30;;;0.88;;
72517;SDS011;60540;51.178;6.738;2023-04-03T14:36:14;3.10;;;1.00;;
72517;SDS011;60540;51.178;6.738;2023-04-03T14:38:42;3.20;;;0.85;;
72517;SDS011;60540;51.178;6.738;2023-04-03T14:41:13;3.28;;;1.33;;
72517;SDS011;60540;51.178;6.738;2023-04-03T14:43:40;3.30;;;1.10;;
72517;SDS011;60540;51.178;6.738;2023-04-03T14:46:18;3.13;;;1.00;;
72517;SDS011;60540;51.178;6.738;2023-04-03T14:48:57;3.83;;;1.17;;
72517;SDS011;60540;51.178;6.738;2023-04-03T14:51:23;2.60;;;1.00;;
72517;SDS011;60540;51.178;6.738;2023-04-03T14:53:49;2.97;;;1.10;;
72517;SDS011;60540;51.178;6.738;2023-04-03T14:56:23;3.40;;;1.20;;
72517;SDS011;60540;51.178;6.738;2023-04-03T14:58:54;3.55;;;0.95;;
72517;SDS011;60540;51.178;6.738;2023-04-03T15:01:21;1.88;;;0.90;;
72517;SDS011;60540;51.178;6.738;2023-04-03T15:03:47;2.50;;;1.30;;
72517;SDS011;60540;51.178;6.738;2023-04-03T15:06:13;2.42;;;1.00;;
72517;SDS011;60540;51.178;6.738;2023-04-03T15:11:07;2.33;;;0.95;;
72517;SDS011;60540;51.178;6.738;2023-04-03T15:13:32;4.07;;;1.23;;
72517;SDS011;60540;51.178;6.738;2023-04-03T15:15:59;3.33;;;1.02;;
72517;SDS011;60540;51.178;6.738;2023-04-03T15:18:57;1.92;;;0.90;;
72517;SDS011;60540;51.178;6.738;2023-04-03T15:21:23;3.95;;;0.90;;
72517;SDS011;60540;51.178;6.738;2023-04-03T15:23:49;2.75;;;0.98;;
72517;SDS011;60540;51.178;6.738;2023-04-03T15:26:45;2.47;;;1.10;;
72517;SDS011;60540;51.178;6.738;2023-04-03T15:29:15;3.65;;;1.13;;
72517;SDS011;60540;51.178;6.738;2023-04-03T15:31:41;3.80;;;1.30;;
72517;SDS011;60540;51.178;6.738;2023-04-03T15:34:07;1.77;;;0.90;;
72517;SDS011;60540;51.178;6.738;2023-04-03T15:36:32;3.15;;;1.10;;
72517;SDS011;60540;51.178;6.738;2023-04-03T15:38:58;2.58;;;0.82;;
72517;SDS011;60540;51.178;6.738;2023-04-03T15:41:24;2.60;;;0.90;;
72517;SDS011;60540;51.178;6.738;2023-04-03T15:43:50;5.13;;;1.48;;
72517;SDS011;60540;51.178;6.738;2023-04-03T15:46:16;3.20;;;1.20;;
72517;SDS011;60540;51.178;6.738;2023-04-03T15:48:42;3.60;;;1.10;;
72517;SDS011;60540;51.178;6.738;2023-04-03T15:51:07;3.70;;;1.35;;
72517;SDS011;60540;51.178;6.738;2023-04-03T15:53:33;3.33;;;1.00;;
72517;SDS011;60540;51.178;6.738;2023-04-03T15:55:59;4.30;;;1.13;;
72517;SDS011;60540;51.178;6.738;2023-04-03T15:58:25;3.65;;;0.90;;
72517;SDS011;60540;51.178;6.738;2023-04-03T16:00:50;2.55;;;0.90;;
72517;SDS011;60540;51.178;6.738;2023-04-03T16:03:18;3.47;;;1.08;;
72517;SDS011;60540;51.178;6.738;2023-04-03T16:05:45;3.70;;;1.00;;
72517;SDS011;60540;51.178;6.738;2023-04-03T16:08:11;3.10;;;1.17;;
72517;SDS011;60540;51.178;6.738;2023-04-03T16:10:37;2.58;;;0.93;;
72517;SDS011;60540;51.178;6.738;2023-04-03T16:15:29;2.78;;;1.00;;
72517;SDS011;60540;51.178;6.738;2023-04-03T16:17:56;2.53;;;0.80;;
72517;SDS011;60540;51.178;6.738;2023-04-03T16:20:24;2.40;;;0.98;;
72517;SDS011;60540;51.178;6.738;2023-04-03T16:22:50;2.75;;;0.80;;
72517;SDS011;60540;51.178;6.738;2023-04-03T16:25:16;2.60;;;1.20;;
72517;SDS011;60540;51.178;6.738;2023-04-03T16:27:49;3.20;;;0.75;;
72517;SDS011;60540;51.178;6.738;2023-04-03T16:30:18;3.20;;;1.00;;
72517;SDS011;60540;51.178;6.738;2023-04-03T16:32:44;3.22;;;1.00;;
72517;SDS011;60540;51.178;6.738;2023-04-03T16:35:11;2.15;;;0.95;;
72517;SDS011;60540;51.178;6.738;2023-04-03T16:37:37;3.58;;;0.90;;
72517;SDS011;60540;51.178;6.738;2023-04-03T16:40:05;3.90;;;1.00;;
72517;SDS011;60540;51.178;6.738;2023-04-03T16:42:32;1.98;;;0.80;;
72517;SDS011;60540;51.178;6.738;2023-04-03T16:44:58;3.45;;;1.23;;
72517;SDS011;60540;51.178;6.738;2023-04-03T16:47:25;2.13;;;0.90;;
72517;SDS011;60540;51.178;6.738;2023-04-03T16:49:51;4.57;;;1.00;;
72517;SDS011;60540;51.178;6.738;2023-04-03T16:52:17;3.28;;;1.00;;
72517;SDS011;60540;51.178;6.738;2023-04-03T16:54:42;3.08;;;1.20;;
72517;SDS011;60540;51.178;6.738;2023-04-03T16:57:09;4.40;;;1.30;;
72517;SDS011;60540;51.178;6.738;2023-04-03T16:59:34;3.58;;;1.13;;
72517;SDS011;60540;51.178;6.738;2023-04-03T17:02:00;3.67;;;1.10;;